Atlantis Alicante — 9HA4600 — position and weather

sailwx.info

Track history (hours):
 
Tides and Currents Weather Stations Pressure Air Temp Water Temp Dewpoint Dewpoint Depression Visibility Wind Speed Wind Dir Waves Ship Positions

Atlantis Alicante

Last reported at 2018-Apr-20 18:53 UTC. Time now 2018-Apr-21 00:22 UTC.
Position N 47°43' W 005°47'.

Length 105 m; draft 7.1 m.

Type: Ship (hazmat cat B). MMSI: 248295000.

Date/timePositionNaut miles runAvg speedWind from/ knotsBaromVisibWave heightAir tempDewpointWater temp
2018-Apr-20 18:53N 47°43' W 005°47'2211.4
2018-Apr-20 16:58N 48°04' W 005°60'1110.9
2018-Apr-20 15:58N 48°14' W 006°06'1111.1
2018-Apr-20 14:59N 48°24' W 006°13'9 8.7
2018-Apr-20 13:53N 48°33' W 006°08'1212.9
2018-Apr-20 12:58N 48°43' W 005°59'1313.2
2018-Apr-20 11:58N 48°54' W 005°48'3212.1
2018-Apr-20 09:18N 49°10' W 005°06'511.0
2018-Apr-20 08:53N 49°13' W 004°59'410.5
2018-Apr-20 08:31N 49°15' W 004°54'510.2
2018-Apr-20 08:00N 49°17' W 004°48'610.0
2018-Apr-20 07:24N 49°20' W 004°40'4 9.8
2018-Apr-20 06:59N 49°22' W 004°34'5 9.7
2018-Apr-20 06:30N 49°25' W 004°28'510.2
2018-Apr-20 06:01N 49°27' W 004°21'510.5
2018-Apr-20 05:30N 49°30' W 004°14'611.2
2018-Apr-20 04:59N 49°33' W 004°07'611.8
2018-Apr-20 04:30N 49°36' W 003°59'612.4
2018-Apr-20 04:00N 49°39' W 003°51'613.0
2018-Apr-20 03:31N 49°43' W 003°43'713.4
2018-Apr-20 03:00N 49°46' W 003°34'713.6
2018-Apr-20 02:30N 49°50' W 003°25'713.4
2018-Apr-20 02:00N 49°53' W 003°16'713.0
2018-Apr-20 01:30N 49°56' W 003°07'612.5
2018-Apr-20 01:00N 49°59' W 002°58'611.6
2018-Apr-20 00:30N 50°01' W 002°50'510.8
2018-Apr-20 00:00N 50°03' W 002°42'610.0
2018-Apr-19 23:24N 50°04' W 002°33'15 8.3
2018-Apr-19 21:35N 50°07' W 002°10'1 7.6
2018-Apr-19 21:30N 50°08' W 002°09'4 8.0
2018-Apr-19 21:00N 50°09' W 002°03'4 8.9
2018-Apr-19 20:30N 50°10' W 001°56'5 9.6
2018-Apr-19 20:00N 50°12' W 001°49'510.6
2018-Apr-19 19:30N 50°13' W 001°41'611.9
2018-Apr-19 19:01N 50°15' W 001°32'613.0
2018-Apr-19 18:30N 50°17' W 001°23'714.1
2018-Apr-19 18:01N 50°19' W 001°12'815.0
2018-Apr-19 17:30N 50°21' W 001°01'815.4
2018-Apr-19 17:01N 50°23' W 000°49'715.0
2018-Apr-19 16:30N 50°25' W 000°38'714.7
2018-Apr-19 16:00N 50°26' W 000°26'714.0
2018-Apr-19 15:30N 50°28' W 000°16'713.4
2018-Apr-19 15:00N 50°30' W 000°06'612.9
2018-Apr-19 14:30N 50°31' E 000°04'612.4
2018-Apr-19 14:00N 50°33' E 000°14'611.7
2018-Apr-19 13:30N 50°35' E 000°22'611.1
2018-Apr-19 13:00N 50°36' E 000°31'510.6
2018-Apr-19 12:30N 50°38' E 000°38'510.7
2018-Apr-19 12:00N 50°42' E 000°45'510.7
2018-Apr-19 11:30N 50°45' E 000°52'611.2
2018-Apr-19 11:00N 50°48' E 000°59'611.9
2018-Apr-19 10:30N 50°52' E 001°06'712.9
2018-Apr-19 09:59N 50°57' E 001°14'714.3
2018-Apr-19 09:31N 51°02' E 001°22'815.1
2018-Apr-19 09:00N 51°06' E 001°31'815.1
2018-Apr-19 08:31N 51°11' E 001°40'713.7
2018-Apr-19 08:00N 51°16' E 001°47'612.9
2018-Apr-19 07:30N 51°22' E 001°52'611.9
2018-Apr-19 07:00N 51°27' E 001°57'611.6
2018-Apr-19 06:30N 51°32' E 002°03'611.1
2018-Apr-19 06:00N 51°36' E 002°09'510.9
2018-Apr-19 05:30N 51°40' E 002°15'510.6
2018-Apr-19 05:00N 51°44' E 002°21'510.2
2018-Apr-19 04:30N 51°47' E 002°26'510.1
2018-Apr-19 03:59N 51°51' E 002°32'610.0
2018-Apr-19 03:24N 51°55' E 002°39'1110.2
2018-Apr-19 02:21N 52°03' E 002°51'411.5
2018-Apr-19 02:01N 52°03' E 002°58'611.7
2018-Apr-19 01:30N 52°03' E 003°07'612.2
2018-Apr-19 01:00N 52°04' E 003°17'612.6
2018-Apr-19 00:30N 52°04' E 003°27'612.7
2018-Apr-19 00:00N 52°04' E 003°38'713.1
2018-Apr-18 23:30N 52°03' E 003°48'5 9.9
2018-Apr-18 23:00N 52°02' E 003°56'713.2
2018-Apr-18 22:30N 51°59' E 004°06'612.9
2018-Apr-18 22:00N 51°55' E 004°14'5 9.5
2018-Apr-18 21:30N 51°54' E 004°22'0 0.0
2018-Apr-18 20:59N 51°54' E 004°22'0 0.0
2018-Apr-18 20:29N 51°54' E 004°22'0 0.0
2018-Apr-18 19:59N 51°54' E 004°22'0 0.0
2018-Apr-18 19:23N 51°54' E 004°22'0 0.0
2018-Apr-18 18:59N 51°54' E 004°22'0 0.0
2018-Apr-18 18:29N 51°54' E 004°22'0 0.0
2018-Apr-18 17:41N 51°54' E 004°22'0 0.0
2018-Apr-18 06:08N 51°54' E 004°22'0 0.0
2018-Apr-18 05:59N 51°54' E 004°22'0 0.0
2018-Apr-18 05:29N 51°54' E 004°22'0 0.0
2018-Apr-18 04:59N 51°54' E 004°22'0 0.0
2018-Apr-18 03:59N 51°54' E 004°22'0 0.0
2018-Apr-18 03:29N 51°54' E 004°22'0 0.0
2018-Apr-18 02:59N 51°54' E 004°22'0 0.0
2018-Apr-18 02:29N 51°54' E 004°22'0 0.0
2018-Apr-18 01:59N 51°54' E 004°22'0 0.0
2018-Apr-18 01:26N 51°54' E 004°22'0 0.0
2018-Apr-18 00:59N 51°54' E 004°22'0 0.0
2018-Apr-18 00:29N 51°54' E 004°22'0 0.0
2018-Apr-17 23:59N 51°54' E 004°22'0 0.0
2018-Apr-17 23:29N 51°54' E 004°22'0 0.4
2018-Apr-17 23:00N 51°54' E 004°21'4 8.1
2018-Apr-17 22:30N 51°55' E 004°15'510.9
2018-Apr-17 22:00N 51°58' E 004°08'510.9
2018-Apr-17 21:30N 51°60' E 003°60'611.7
2018-Apr-17 21:00N 52°01' E 003°51'5 8.5
2018-Apr-17 20:28N 52°04' E 003°45'4 9.7
2018-Apr-17 20:01N 52°09' E 003°44'0 0.0
2018-Apr-17 16:54N 52°09' E 003°44'0 0.0
2018-Apr-17 12:18N 52°09' E 003°44'0 0.2
2018-Apr-17 12:00N 52°09' E 003°44'0 0.1
2018-Apr-17 11:30N 52°09' E 003°44'0 0.0
2018-Apr-17 11:00N 52°09' E 003°44'0 0.0
2018-Apr-17 10:30N 52°09' E 003°44'0 0.0
2018-Apr-17 10:00N 52°09' E 003°44'0 0.0
2018-Apr-17 09:30N 52°09' E 003°44'0 0.0
2018-Apr-17 09:00N 52°09' E 003°44'0 0.0
2018-Apr-17 08:30N 52°09' E 003°44'0 0.1
2018-Apr-17 07:57N 52°09' E 003°44'0 0.1
2018-Apr-17 07:30N 52°09' E 003°44'0 0.0
2018-Apr-17 07:00N 52°09' E 003°44'0 0.0
2018-Apr-17 06:21N 52°09' E 003°44'0 0.0
2018-Apr-17 06:00N 52°09' E 003°44'0 0.0
2018-Apr-17 05:27N 52°09' E 003°44'0 0.0
2018-Apr-17 04:45N 52°09' E 003°44'0 0.0
2018-Apr-17 04:30N 52°09' E 003°44'0 0.0
2018-Apr-17 02:12N 52°09' E 003°44'0 0.0
2018-Apr-17 01:48N 52°09' E 003°44'0 0.0
2018-Apr-17 01:30N 52°09' E 003°44'0 0.0
2018-Apr-17 00:36N 52°09' E 003°44'0 0.0
2018-Apr-17 00:21N 52°09' E 003°44'0 0.2
2018-Apr-17 00:00N 52°09' E 003°44'0 0.1
2018-Apr-16 23:30N 52°09' E 003°44'0 0.0
2018-Apr-16 23:00N 52°09' E 003°44'0 0.0
2018-Apr-16 22:30N 52°09' E 003°44'0 0.0
2018-Apr-16 22:00N 52°09' E 003°44'0 0.0
2018-Apr-16 21:24N 52°09' E 003°44'0 0.0
2018-Apr-16 21:00N 52°09' E 003°44'0 0.0
2018-Apr-16 20:30N 52°09' E 003°44'0 0.0
2018-Apr-16 20:00N 52°09' E 003°44'0 0.1
2018-Apr-16 19:30N 52°09' E 003°44'0 0.2
2018-Apr-16 19:00N 52°09' E 003°44'0 0.1
2018-Apr-16 18:30N 52°09' E 003°44'0 0.0
2018-Apr-16 17:57N 52°09' E 003°44'0 0.0
2018-Apr-16 17:30N 52°09' E 003°44'0 0.0
2018-Apr-16 17:00N 52°09' E 003°44'0 0.0
2018-Apr-16 16:06N 52°09' E 003°44'0 0.0
2018-Apr-16 15:54N 52°09' E 003°44'0 0.0
2018-Apr-16 15:30N 52°09' E 003°44'0 0.0
2018-Apr-16 15:00N 52°09' E 003°44'0 0.0
2018-Apr-16 14:30N 52°09' E 003°44'0 0.0
2018-Apr-16 13:57N 52°09' E 003°44'0 0.0
2018-Apr-16 13:27N 52°09' E 003°44'0 0.0
2018-Apr-16 12:48N 52°09' E 003°44'0 0.0
2018-Apr-16 12:24N 52°09' E 003°44'0 0.0
2018-Apr-16 11:48N 52°09' E 003°44'0 0.0
2018-Apr-16 11:27N 52°09' E 003°44'0 0.2
2018-Apr-16 11:00N 52°09' E 003°44'0 0.1
2018-Apr-16 10:30N 52°09' E 003°44'0 0.0
2018-Apr-16 09:57N 52°09' E 003°44'0 0.0
2018-Apr-16 09:06N 52°09' E 003°44'0 0.1
2018-Apr-16 09:00N 52°09' E 003°44'0 0.0
2018-Apr-16 08:24N 52°09' E 003°44'0 0.0
2018-Apr-16 08:00N 52°09' E 003°44'0 0.1
2018-Apr-16 07:30N 52°09' E 003°44'0 0.1
2018-Apr-16 06:57N 52°09' E 003°44'0 0.1
2018-Apr-16 06:21N 52°09' E 003°44'0 0.0
2018-Apr-16 06:00N 52°09' E 003°44'0 0.0
2018-Apr-16 05:18N 52°09' E 003°44'0 0.0
2018-Apr-16 04:54N 52°09' E 003°44'0 0.0
2018-Apr-16 04:27N 52°09' E 003°44'0 0.0
2018-Apr-16 02:21N 52°09' E 003°44'0 0.0
2018-Apr-16 01:33N 52°09' E 003°44'0 0.0
2018-Apr-16 00:39N 52°09' E 003°44'0 0.0
2018-Apr-15 23:45N 52°09' E 003°44'0 0.2
2018-Apr-15 23:30N 52°09' E 003°44'0 0.1
2018-Apr-15 22:57N 52°09' E 003°44'0 0.0
2018-Apr-15 22:27N 52°09' E 003°44'0 0.0
2018-Apr-15 22:00N 52°09' E 003°44'0 0.0
2018-Apr-15 21:30N 52°09' E 003°44'0 0.1
2018-Apr-15 20:54N 52°09' E 003°44'0 0.0
2018-Apr-15 20:30N 52°09' E 003°44'0 0.0
2018-Apr-15 20:00N 52°09' E 003°44'0 0.0
2018-Apr-15 19:30N 52°09' E 003°44'0 0.0
2018-Apr-15 19:00N 52°09' E 003°44'0 0.0
2018-Apr-15 18:30N 52°09' E 003°44'0 0.2
2018-Apr-15 18:00N 52°09' E 003°44'4 6.9
2018-Apr-15 17:27N 52°13' E 003°45'4 9.7
2018-Apr-15 17:00N 52°17' E 003°47'611.6
2018-Apr-15 16:30N 52°23' E 003°48'611.5
2018-Apr-15 15:59N 52°28' E 003°50'611.2
2018-Apr-15 15:28N 52°34' E 003°52'511.1
2018-Apr-15 14:59N 52°39' E 003°53'610.8
2018-Apr-15 14:28N 52°45' E 003°56'15610.9
2018-Apr-15 00:12N 54°12' E 007°34'313.0
2018-Apr-14 23:56N 54°10' E 007°39'612.6
2018-Apr-14 23:30N 54°08' E 007°47'612.3
2018-Apr-14 23:00N 54°04' E 007°56'612.1
2018-Apr-14 22:28N 54°01' E 008°06'511.1
2018-Apr-14 22:00N 54°00' E 008°15'611.1
2018-Apr-14 21:29N 53°59' E 008°24'510.1
2018-Apr-14 21:00N 53°58' E 008°32'5 9.8
2018-Apr-14 20:30N 53°56' E 008°40'4 8.8
2018-Apr-14 20:00N 53°52' E 008°44'0 0.0
2018-Apr-14 19:30N 53°52' E 008°44'0 0.1
2018-Apr-14 19:00N 53°53' E 008°44'0 0.1
2018-Apr-14 18:30N 53°53' E 008°44'0 0.6
2018-Apr-14 18:00N 53°53' E 008°43'713.4
2018-Apr-14 17:30N 53°51' E 008°54'815.8
2018-Apr-14 17:01N 53°53' E 009°07'1 2.7
2018-Apr-14 16:30N 53°54' E 009°09'1 2.6
2018-Apr-14 16:00N 53°55' E 009°10'0 0.1
2018-Apr-14 15:30N 53°55' E 009°10'0 0.0
2018-Apr-14 14:59N 53°55' E 009°10'0 0.0
2018-Apr-14 14:20N 53°55' E 009°10'0 0.0
2018-Apr-14 13:59N 53°55' E 009°10'0 0.0
2018-Apr-14 13:29N 53°55' E 009°10'0 0.0
2018-Apr-14 12:59N 53°55' E 009°10'0 0.0
2018-Apr-14 12:23N 53°55' E 009°10'0 0.0
2018-Apr-14 11:56N 53°55' E 009°10'0 0.0
2018-Apr-14 11:29N 53°55' E 009°10'0 0.0
2018-Apr-14 10:50N 53°55' E 009°10'0 0.0
2018-Apr-14 10:26N 53°55' E 009°10'0 0.0
2018-Apr-14 09:56N 53°55' E 009°10'0 0.0
2018-Apr-14 09:29N 53°55' E 009°10'0 0.0
2018-Apr-14 08:53N 53°55' E 009°10'0 0.0
2018-Apr-14 08:26N 53°54' E 009°10'0 0.0
2018-Apr-14 07:50N 53°55' E 009°10'0 0.0
2018-Apr-14 07:26N 53°55' E 009°10'0 0.0
2018-Apr-14 06:56N 53°55' E 009°10'0 0.0
2018-Apr-14 06:29N 53°55' E 009°10'0 0.0
2018-Apr-14 05:59N 53°55' E 009°10'0 0.0
2018-Apr-14 05:26N 53°55' E 009°10'0 0.0
2018-Apr-14 04:59N 53°55' E 009°10'0 0.0
2018-Apr-14 04:29N 53°55' E 009°10'0 0.0
2018-Apr-14 03:56N 53°55' E 009°10'0 0.0
2018-Apr-14 03:29N 53°55' E 009°10'0 0.0
2018-Apr-14 02:59N 53°55' E 009°10'0 0.0
2018-Apr-14 02:23N 53°55' E 009°10'0 0.0
2018-Apr-14 01:59N 53°55' E 009°10'0 0.0
2018-Apr-14 01:26N 53°55' E 009°10'0 0.0
2018-Apr-14 00:56N 53°55' E 009°10'0 0.0
2018-Apr-14 00:20N 53°55' E 009°10'0 0.0
2018-Apr-13 23:59N 53°55' E 009°10'0 0.0
2018-Apr-13 23:23N 53°55' E 009°10'0 0.0
2018-Apr-13 22:56N 53°55' E 009°10'0 0.0
2018-Apr-13 22:26N 53°55' E 009°10'0 0.0
2018-Apr-13 21:53N 53°55' E 009°10'0 0.0
2018-Apr-13 21:29N 53°55' E 009°10'0 0.0
2018-Apr-13 20:59N 53°55' E 009°10'0 0.0
2018-Apr-13 20:29N 53°55' E 009°10'0 0.0
2018-Apr-13 19:50N 53°55' E 009°10'0 0.0
2018-Apr-13 19:29N 53°55' E 009°10'0 0.0
2018-Apr-13 18:59N 53°55' E 009°10'0 0.0
2018-Apr-13 18:29N 53°55' E 009°10'0 0.0
2018-Apr-13 17:59N 53°55' E 009°10'0 0.0
2018-Apr-13 17:26N 53°55' E 009°10'0 0.0
2018-Apr-13 16:59N 53°55' E 009°10'0 0.0
2018-Apr-13 16:29N 53°55' E 009°10'0 0.0
2018-Apr-13 15:59N 53°55' E 009°10'0 0.0
2018-Apr-13 15:29N 53°55' E 009°10'0 0.0
2018-Apr-13 14:56N 53°55' E 009°10'0 0.0
2018-Apr-13 14:29N 53°55' E 009°10'0 0.0
2018-Apr-13 13:59N 53°55' E 009°10'0 0.0
2018-Apr-13 13:26N 53°55' E 009°10'0 0.0
2018-Apr-13 12:59N 53°55' E 009°10'0 0.0
2018-Apr-13 12:23N 53°55' E 009°10'0 0.0
2018-Apr-13 11:56N 53°55' E 009°10'0 0.0
2018-Apr-13 11:29N 53°55' E 009°10'0 0.0
2018-Apr-13 10:59N 53°55' E 009°10'0 0.0
2018-Apr-13 10:29N 53°55' E 009°10'0 0.0
2018-Apr-13 09:59N 53°55' E 009°10'0 0.0
2018-Apr-13 09:14N 53°55' E 009°10'0 0.0
2018-Apr-13 08:53N 53°55' E 009°10'0 0.0
2018-Apr-13 08:17N 53°55' E 009°10'0 0.0
2018-Apr-13 07:59N 53°55' E 009°10'0 0.0
2018-Apr-13 07:30N 53°55' E 009°10'1 2.9
2018-Apr-13 07:00N 53°54' E 009°09'0 0.0
2018-Apr-13 06:31N 53°54' E 009°09'1 2.4
2018-Apr-13 06:00N 53°53' E 009°07'1 1.2
2018-Apr-13 05:30N 53°53' E 009°06'0 0.9
2018-Apr-13 05:01N 53°53' E 009°05'2 3.9
2018-Apr-13 04:30N 53°52' E 009°02'4 8.1
2018-Apr-13 04:00N 53°51' E 008°56'4 7.9
2018-Apr-13 03:30N 53°50' E 008°49'4 7.2
2018-Apr-13 03:00N 53°52' E 008°44'4 7.2
2018-Apr-13 02:30N 53°55' E 008°40'4 7.4
2018-Apr-13 02:00N 53°58' E 008°36'4 8.8
2018-Apr-13 01:30N 53°58' E 008°29'4 8.8
2018-Apr-13 01:00N 53°59' E 008°21'5 9.7
2018-Apr-13 00:30N 53°60' E 008°13'9910.5
2018-Apr-12 15:06N 53°35' E 005°31'210.7
2018-Apr-12 14:56N 53°35' E 005°29'510.7
2018-Apr-12 14:30N 53°33' E 005°21'510.5
2018-Apr-12 14:00N 53°31' E 005°13'5 9.8
2018-Apr-12 13:30N 53°30' E 005°05'5 9.3
2018-Apr-12 13:00N 53°28' E 004°58'4 9.0
2018-Apr-12 12:31N 53°26' E 004°51'5 8.7
2018-Apr-12 11:56N 53°24' E 004°43'20 9.1
2018-Apr-12 09:46N 53°07' E 004°28'3 9.6
2018-Apr-12 09:27N 53°04' E 004°26'4 9.6
2018-Apr-12 09:00N 53°00' E 004°22'22 9.5
2018-Apr-12 06:41N 52°41' E 004°04'2 9.1
2018-Apr-12 06:30N 52°40' E 004°03'5 9.6
2018-Apr-12 05:57N 52°35' E 003°58'510.1
2018-Apr-12 05:30N 52°32' E 003°54'510.7
2018-Apr-12 05:00N 52°26' E 003°53'510.9
2018-Apr-12 04:30N 52°21' E 003°52'511.0
2018-Apr-12 04:00N 52°15' E 003°53'611.3
2018-Apr-12 03:30N 52°10' E 003°54'611.3
2018-Apr-12 03:00N 52°04' E 003°55'4 7.4
2018-Apr-12 02:31N 52°01' E 003°58'612.1
2018-Apr-12 02:01N 51°59' E 004°07'612.6
2018-Apr-12 01:30N 51°55' E 004°15'2 4.2
2018-Apr-12 01:00N 51°53' E 004°17'0 0.0
2018-Apr-12 00:28N 51°53' E 004°17'0 0.0
2018-Apr-11 23:58N 51°53' E 004°17'0 0.0
2018-Apr-11 23:28N 51°53' E 004°17'0 0.0
2018-Apr-11 22:55N 51°53' E 004°17'0 0.0
2018-Apr-11 22:28N 51°53' E 004°17'0 0.0
2018-Apr-11 21:58N 51°53' E 004°17'0 0.0
2018-Apr-11 21:28N 51°53' E 004°17'0 0.0
2018-Apr-11 20:55N 51°53' E 004°17'0 0.0
2018-Apr-11 20:28N 51°53' E 004°17'0 0.0
2018-Apr-11 19:58N 51°53' E 004°17'0 0.0
2018-Apr-11 19:19N 51°53' E 004°17'0 0.0
2018-Apr-11 18:58N 51°53' E 004°17'0 0.0
2018-Apr-11 18:28N 51°53' E 004°17'0 0.0
2018-Apr-11 17:58N 51°53' E 004°17'0 0.0
2018-Apr-11 17:28N 51°53' E 004°17'0 0.0
2018-Apr-11 16:58N 51°53' E 004°17'0 0.0
2018-Apr-11 16:25N 51°53' E 004°17'0 0.0
2018-Apr-11 15:58N 51°53' E 004°17'0 0.0
2018-Apr-11 15:28N 51°53' E 004°17'0 0.0
2018-Apr-11 14:52N 51°53' E 004°17'0 0.0
2018-Apr-11 14:28N 51°53' E 004°17'0 0.0
2018-Apr-11 13:58N 51°53' E 004°17'0 0.0
2018-Apr-11 13:19N 51°53' E 004°17'0 0.0
2018-Apr-11 12:58N 51°53' E 004°17'0 0.0
2018-Apr-11 12:28N 51°53' E 004°17'0 0.0
2018-Apr-11 11:58N 51°53' E 004°17'0 0.0
2018-Apr-11 11:28N 51°53' E 004°17'0 0.0
2018-Apr-11 10:58N 51°53' E 004°17'0 0.0
2018-Apr-11 10:28N 51°53' E 004°17'0 0.0
2018-Apr-11 09:58N 51°53' E 004°17'0 0.0
2018-Apr-11 09:28N 51°53' E 004°17'0 0.0
2018-Apr-11 08:58N 51°53' E 004°17'0 0.0
2018-Apr-11 08:28N 51°53' E 004°17'0 0.0
2018-Apr-11 07:58N 51°53' E 004°17'0 0.0
2018-Apr-11 07:25N 51°53' E 004°17'0 0.0
2018-Apr-11 06:58N 51°53' E 004°17'0 0.0
2018-Apr-11 06:25N 51°53' E 004°17'0 0.0
2018-Apr-11 05:55N 51°53' E 004°17'0 0.0
2018-Apr-11 05:19N 51°53' E 004°17'0 0.0
2018-Apr-11 04:58N 51°53' E 004°17'0 0.0
2018-Apr-11 04:28N 51°53' E 004°17'0 0.0
2018-Apr-11 03:55N 51°53' E 004°17'0 0.0
2018-Apr-11 03:28N 51°53' E 004°17'0 0.0
2018-Apr-11 02:58N 51°53' E 004°17'0 0.0
2018-Apr-11 02:28N 51°53' E 004°17'0 0.0
2018-Apr-11 01:58N 51°53' E 004°17'0 0.0
2018-Apr-11 01:28N 51°53' E 004°17'0 0.0
2018-Apr-11 00:58N 51°53' E 004°17'0 0.0
2018-Apr-11 00:25N 51°53' E 004°17'0 0.0
2018-Apr-10 23:58N 51°53' E 004°17'0 0.0
2018-Apr-10 23:28N 51°53' E 004°17'0 0.0
2018-Apr-10 22:58N 51°53' E 004°17'0 0.0
2018-Apr-10 22:28N 51°53' E 004°17'0 0.0
2018-Apr-10 21:58N 51°53' E 004°17'0 0.0
2018-Apr-10 21:28N 51°53' E 004°17'0 0.0
2018-Apr-10 20:58N 51°53' E 004°17'0 0.0
2018-Apr-10 20:28N 51°53' E 004°17'0 0.0
2018-Apr-10 19:58N 51°53' E 004°17'0 0.0
2018-Apr-10 19:28N 51°53' E 004°17'0 0.0
2018-Apr-10 19:00N 51°53' E 004°17'  
Track history (hours):
 
Tides and Currents Weather Stations Pressure Air Temp Water Temp Dewpoint Dewpoint Depression Visibility Wind Speed Wind Dir Waves Ship Positions

Atlantis Alicante

Last reported at 2018-Apr-20 18:53 UTC. Time now 2018-Apr-21 00:22 UTC.
Position N 47°43' W 005°47'.

Length 105 m; draft 7.1 m.

Type: Ship (hazmat cat B). MMSI: 248295000.

Date/timePositionNaut miles runAvg speedWind from/ knotsBaromVisibWave heightAir tempDewpointWater temp
2018-Apr-20 18:53N 47°43' W 005°47'2211.4
2018-Apr-20 16:58N 48°04' W 005°60'1110.9
2018-Apr-20 15:58N 48°14' W 006°06'1111.1
2018-Apr-20 14:59N 48°24' W 006°13'9 8.7
2018-Apr-20 13:53N 48°33' W 006°08'1212.9
2018-Apr-20 12:58N 48°43' W 005°59'1313.2
2018-Apr-20 11:58N 48°54' W 005°48'3212.1
2018-Apr-20 09:18N 49°10' W 005°06'511.0
2018-Apr-20 08:53N 49°13' W 004°59'410.5
2018-Apr-20 08:31N 49°15' W 004°54'510.2
2018-Apr-20 08:00N 49°17' W 004°48'610.0
2018-Apr-20 07:24N 49°20' W 004°40'4 9.8
2018-Apr-20 06:59N 49°22' W 004°34'5 9.7
2018-Apr-20 06:30N 49°25' W 004°28'510.2
2018-Apr-20 06:01N 49°27' W 004°21'510.5
2018-Apr-20 05:30N 49°30' W 004°14'611.2
2018-Apr-20 04:59N 49°33' W 004°07'611.8
2018-Apr-20 04:30N 49°36' W 003°59'612.4
2018-Apr-20 04:00N 49°39' W 003°51'613.0
2018-Apr-20 03:31N 49°43' W 003°43'713.4
2018-Apr-20 03:00N 49°46' W 003°34'713.6
2018-Apr-20 02:30N 49°50' W 003°25'713.4
2018-Apr-20 02:00N 49°53' W 003°16'713.0
2018-Apr-20 01:30N 49°56' W 003°07'612.5
2018-Apr-20 01:00N 49°59' W 002°58'611.6
2018-Apr-20 00:30N 50°01' W 002°50'510.8
2018-Apr-20 00:00N 50°03' W 002°42'610.0
2018-Apr-19 23:24N 50°04' W 002°33'15 8.3
2018-Apr-19 21:35N 50°07' W 002°10'1 7.6
2018-Apr-19 21:30N 50°08' W 002°09'4 8.0
2018-Apr-19 21:00N 50°09' W 002°03'4 8.9
2018-Apr-19 20:30N 50°10' W 001°56'5 9.6
2018-Apr-19 20:00N 50°12' W 001°49'510.6
2018-Apr-19 19:30N 50°13' W 001°41'611.9
2018-Apr-19 19:01N 50°15' W 001°32'613.0
2018-Apr-19 18:30N 50°17' W 001°23'714.1
2018-Apr-19 18:01N 50°19' W 001°12'815.0
2018-Apr-19 17:30N 50°21' W 001°01'815.4
2018-Apr-19 17:01N 50°23' W 000°49'715.0
2018-Apr-19 16:30N 50°25' W 000°38'714.7
2018-Apr-19 16:00N 50°26' W 000°26'714.0
2018-Apr-19 15:30N 50°28' W 000°16'713.4
2018-Apr-19 15:00N 50°30' W 000°06'612.9
2018-Apr-19 14:30N 50°31' E 000°04'612.4
2018-Apr-19 14:00N 50°33' E 000°14'611.7
2018-Apr-19 13:30N 50°35' E 000°22'611.1
2018-Apr-19 13:00N 50°36' E 000°31'510.6
2018-Apr-19 12:30N 50°38' E 000°38'510.7
2018-Apr-19 12:00N 50°42' E 000°45'510.7
2018-Apr-19 11:30N 50°45' E 000°52'611.2
2018-Apr-19 11:00N 50°48' E 000°59'611.9
2018-Apr-19 10:30N 50°52' E 001°06'712.9
2018-Apr-19 09:59N 50°57' E 001°14'714.3
2018-Apr-19 09:31N 51°02' E 001°22'815.1
2018-Apr-19 09:00N 51°06' E 001°31'815.1
2018-Apr-19 08:31N 51°11' E 001°40'713.7
2018-Apr-19 08:00N 51°16' E 001°47'612.9
2018-Apr-19 07:30N 51°22' E 001°52'611.9
2018-Apr-19 07:00N 51°27' E 001°57'611.6
2018-Apr-19 06:30N 51°32' E 002°03'611.1
2018-Apr-19 06:00N 51°36' E 002°09'510.9
2018-Apr-19 05:30N 51°40' E 002°15'510.6
2018-Apr-19 05:00N 51°44' E 002°21'510.2
2018-Apr-19 04:30N 51°47' E 002°26'510.1
2018-Apr-19 03:59N 51°51' E 002°32'610.0
2018-Apr-19 03:24N 51°55' E 002°39'1110.2
2018-Apr-19 02:21N 52°03' E 002°51'411.5
2018-Apr-19 02:01N 52°03' E 002°58'611.7
2018-Apr-19 01:30N 52°03' E 003°07'612.2
2018-Apr-19 01:00N 52°04' E 003°17'612.6
2018-Apr-19 00:30N 52°04' E 003°27'612.7
2018-Apr-19 00:00N 52°04' E 003°38'713.1
2018-Apr-18 23:30N 52°03' E 003°48'5 9.9
2018-Apr-18 23:00N 52°02' E 003°56'713.2
2018-Apr-18 22:30N 51°59' E 004°06'612.9
2018-Apr-18 22:00N 51°55' E 004°14'5 9.5
2018-Apr-18 21:30N 51°54' E 004°22'0 0.0
2018-Apr-18 20:59N 51°54' E 004°22'0 0.0
2018-Apr-18 20:29N 51°54' E 004°22'0 0.0
2018-Apr-18 19:59N 51°54' E 004°22'0 0.0
2018-Apr-18 19:23N 51°54' E 004°22'0 0.0
2018-Apr-18 18:59N 51°54' E 004°22'0 0.0
2018-Apr-18 18:29N 51°54' E 004°22'0 0.0
2018-Apr-18 17:41N 51°54' E 004°22'0 0.0
2018-Apr-18 06:08N 51°54' E 004°22'0 0.0
2018-Apr-18 05:59N 51°54' E 004°22'0 0.0
2018-Apr-18 05:29N 51°54' E 004°22'0 0.0
2018-Apr-18 04:59N 51°54' E 004°22'0 0.0
2018-Apr-18 03:59N 51°54' E 004°22'0 0.0
2018-Apr-18 03:29N 51°54' E 004°22'0 0.0
2018-Apr-18 02:59N 51°54' E 004°22'0 0.0
2018-Apr-18 02:29N 51°54' E 004°22'0 0.0
2018-Apr-18 01:59N 51°54' E 004°22'0 0.0
2018-Apr-18 01:26N 51°54' E 004°22'0 0.0
2018-Apr-18 00:59N 51°54' E 004°22'0 0.0
2018-Apr-18 00:29N 51°54' E 004°22'0 0.0
2018-Apr-17 23:59N 51°54' E 004°22'0 0.0
2018-Apr-17 23:29N 51°54' E 004°22'0 0.4
2018-Apr-17 23:00N 51°54' E 004°21'4 8.1
2018-Apr-17 22:30N 51°55' E 004°15'510.9
2018-Apr-17 22:00N 51°58' E 004°08'510.9
2018-Apr-17 21:30N 51°60' E 003°60'611.7
2018-Apr-17 21:00N 52°01' E 003°51'5 8.5
2018-Apr-17 20:28N 52°04' E 003°45'4 9.7
2018-Apr-17 20:01N 52°09' E 003°44'0 0.0
2018-Apr-17 16:54N 52°09' E 003°44'0 0.0
2018-Apr-17 12:18N 52°09' E 003°44'0 0.2
2018-Apr-17 12:00N 52°09' E 003°44'0 0.1
2018-Apr-17 11:30N 52°09' E 003°44'0 0.0
2018-Apr-17 11:00N 52°09' E 003°44'0 0.0
2018-Apr-17 10:30N 52°09' E 003°44'0 0.0
2018-Apr-17 10:00N 52°09' E 003°44'0 0.0
2018-Apr-17 09:30N 52°09' E 003°44'0 0.0
2018-Apr-17 09:00N 52°09' E 003°44'0 0.0
2018-Apr-17 08:30N 52°09' E 003°44'0 0.1
2018-Apr-17 07:57N 52°09' E 003°44'0 0.1
2018-Apr-17 07:30N 52°09' E 003°44'0 0.0
2018-Apr-17 07:00N 52°09' E 003°44'0 0.0
2018-Apr-17 06:21N 52°09' E 003°44'0 0.0
2018-Apr-17 06:00N 52°09' E 003°44'0 0.0
2018-Apr-17 05:27N 52°09' E 003°44'0 0.0
2018-Apr-17 04:45N 52°09' E 003°44'0 0.0
2018-Apr-17 04:30N 52°09' E 003°44'0 0.0
2018-Apr-17 02:12N 52°09' E 003°44'0 0.0
2018-Apr-17 01:48N 52°09' E 003°44'0 0.0
2018-Apr-17 01:30N 52°09' E 003°44'0 0.0
2018-Apr-17 00:36N 52°09' E 003°44'0 0.0
2018-Apr-17 00:21N 52°09' E 003°44'0 0.2
2018-Apr-17 00:00N 52°09' E 003°44'0 0.1
2018-Apr-16 23:30N 52°09' E 003°44'0 0.0
2018-Apr-16 23:00N 52°09' E 003°44'0 0.0
2018-Apr-16 22:30N 52°09' E 003°44'0 0.0
2018-Apr-16 22:00N 52°09' E 003°44'0 0.0
2018-Apr-16 21:24N 52°09' E 003°44'0 0.0
2018-Apr-16 21:00N 52°09' E 003°44'0 0.0
2018-Apr-16 20:30N 52°09' E 003°44'0 0.0
2018-Apr-16 20:00N 52°09' E 003°44'0 0.1
2018-Apr-16 19:30N 52°09' E 003°44'0 0.2
2018-Apr-16 19:00N 52°09' E 003°44'0 0.1
2018-Apr-16 18:30N 52°09' E 003°44'0 0.0
2018-Apr-16 17:57N 52°09' E 003°44'0 0.0
2018-Apr-16 17:30N 52°09' E 003°44'0 0.0
2018-Apr-16 17:00N 52°09' E 003°44'0 0.0
2018-Apr-16 16:06N 52°09' E 003°44'0 0.0
2018-Apr-16 15:54N 52°09' E 003°44'0 0.0
2018-Apr-16 15:30N 52°09' E 003°44'0 0.0
2018-Apr-16 15:00N 52°09' E 003°44'0 0.0
2018-Apr-16 14:30N 52°09' E 003°44'0 0.0
2018-Apr-16 13:57N 52°09' E 003°44'0 0.0
2018-Apr-16 13:27N 52°09' E 003°44'0 0.0
2018-Apr-16 12:48N 52°09' E 003°44'0 0.0
2018-Apr-16 12:24N 52°09' E 003°44'0 0.0
2018-Apr-16 11:48N 52°09' E 003°44'0 0.0
2018-Apr-16 11:27N 52°09' E 003°44'0 0.2
2018-Apr-16 11:00N 52°09' E 003°44'0 0.1
2018-Apr-16 10:30N 52°09' E 003°44'0 0.0
2018-Apr-16 09:57N 52°09' E 003°44'0 0.0
2018-Apr-16 09:06N 52°09' E 003°44'0 0.1
2018-Apr-16 09:00N 52°09' E 003°44'0 0.0
2018-Apr-16 08:24N 52°09' E 003°44'0 0.0
2018-Apr-16 08:00N 52°09' E 003°44'0 0.1
2018-Apr-16 07:30N 52°09' E 003°44'0 0.1
2018-Apr-16 06:57N 52°09' E 003°44'0 0.1
2018-Apr-16 06:21N 52°09' E 003°44'0 0.0
2018-Apr-16 06:00N 52°09' E 003°44'0 0.0
2018-Apr-16 05:18N 52°09' E 003°44'0 0.0
2018-Apr-16 04:54N 52°09' E 003°44'0 0.0
2018-Apr-16 04:27N 52°09' E 003°44'0 0.0
2018-Apr-16 02:21N 52°09' E 003°44'0 0.0
2018-Apr-16 01:33N 52°09' E 003°44'0 0.0
2018-Apr-16 00:39N 52°09' E 003°44'0 0.0
2018-Apr-15 23:45N 52°09' E 003°44'0 0.2
2018-Apr-15 23:30N 52°09' E 003°44'0 0.1
2018-Apr-15 22:57N 52°09' E 003°44'0 0.0
2018-Apr-15 22:27N 52°09' E 003°44'0 0.0
2018-Apr-15 22:00N 52°09' E 003°44'0 0.0
2018-Apr-15 21:30N 52°09' E 003°44'0 0.1
2018-Apr-15 20:54N 52°09' E 003°44'0 0.0
2018-Apr-15 20:30N 52°09' E 003°44'0 0.0
2018-Apr-15 20:00N 52°09' E 003°44'0 0.0
2018-Apr-15 19:30N 52°09' E 003°44'0 0.0
2018-Apr-15 19:00N 52°09' E 003°44'0 0.0
2018-Apr-15 18:30N 52°09' E 003°44'0 0.2
2018-Apr-15 18:00N 52°09' E 003°44'4 6.9
2018-Apr-15 17:27N 52°13' E 003°45'4 9.7
2018-Apr-15 17:00N 52°17' E 003°47'611.6
2018-Apr-15 16:30N 52°23' E 003°48'611.5
2018-Apr-15 15:59N 52°28' E 003°50'611.2
2018-Apr-15 15:28N 52°34' E 003°52'511.1
2018-Apr-15 14:59N 52°39' E 003°53'610.8
2018-Apr-15 14:28N 52°45' E 003°56'15610.9
2018-Apr-15 00:12N 54°12' E 007°34'313.0
2018-Apr-14 23:56N 54°10' E 007°39'612.6
2018-Apr-14 23:30N 54°08' E 007°47'612.3
2018-Apr-14 23:00N 54°04' E 007°56'612.1
2018-Apr-14 22:28N 54°01' E 008°06'511.1
2018-Apr-14 22:00N 54°00' E 008°15'611.1
2018-Apr-14 21:29N 53°59' E 008°24'510.1
2018-Apr-14 21:00N 53°58' E 008°32'5 9.8
2018-Apr-14 20:30N 53°56' E 008°40'4 8.8
2018-Apr-14 20:00N 53°52' E 008°44'0 0.0
2018-Apr-14 19:30N 53°52' E 008°44'0 0.1
2018-Apr-14 19:00N 53°53' E 008°44'0 0.1
2018-Apr-14 18:30N 53°53' E 008°44'0 0.6
2018-Apr-14 18:00N 53°53' E 008°43'713.4
2018-Apr-14 17:30N 53°51' E 008°54'815.8
2018-Apr-14 17:01N 53°53' E 009°07'1 2.7
2018-Apr-14 16:30N 53°54' E 009°09'1 2.6
2018-Apr-14 16:00N 53°55' E 009°10'0 0.1
2018-Apr-14 15:30N 53°55' E 009°10'0 0.0
2018-Apr-14 14:59N 53°55' E 009°10'0 0.0
2018-Apr-14 14:20N 53°55' E 009°10'0 0.0
2018-Apr-14 13:59N 53°55' E 009°10'0 0.0
2018-Apr-14 13:29N 53°55' E 009°10'0 0.0
2018-Apr-14 12:59N 53°55' E 009°10'0 0.0
2018-Apr-14 12:23N 53°55' E 009°10'0 0.0
2018-Apr-14 11:56N 53°55' E 009°10'0 0.0
2018-Apr-14 11:29N 53°55' E 009°10'0 0.0
2018-Apr-14 10:50N 53°55' E 009°10'0 0.0
2018-Apr-14 10:26N 53°55' E 009°10'0 0.0
2018-Apr-14 09:56N 53°55' E 009°10'0 0.0
2018-Apr-14 09:29N 53°55' E 009°10'0 0.0
2018-Apr-14 08:53N 53°55' E 009°10'0 0.0
2018-Apr-14 08:26N 53°54' E 009°10'0 0.0
2018-Apr-14 07:50N 53°55' E 009°10'0 0.0
2018-Apr-14 07:26N 53°55' E 009°10'0 0.0
2018-Apr-14 06:56N 53°55' E 009°10'0 0.0
2018-Apr-14 06:29N 53°55' E 009°10'0 0.0
2018-Apr-14 05:59N 53°55' E 009°10'0 0.0
2018-Apr-14 05:26N 53°55' E 009°10'0 0.0
2018-Apr-14 04:59N 53°55' E 009°10'0 0.0
2018-Apr-14 04:29N 53°55' E 009°10'0 0.0
2018-Apr-14 03:56N 53°55' E 009°10'0 0.0
2018-Apr-14 03:29N 53°55' E 009°10'0 0.0
2018-Apr-14 02:59N 53°55' E 009°10'0 0.0
2018-Apr-14 02:23N 53°55' E 009°10'0 0.0
2018-Apr-14 01:59N 53°55' E 009°10'0 0.0
2018-Apr-14 01:26N 53°55' E 009°10'0 0.0
2018-Apr-14 00:56N 53°55' E 009°10'0 0.0
2018-Apr-14 00:20N 53°55' E 009°10'0 0.0
2018-Apr-13 23:59N 53°55' E 009°10'0 0.0
2018-Apr-13 23:23N 53°55' E 009°10'0 0.0
2018-Apr-13 22:56N 53°55' E 009°10'0 0.0
2018-Apr-13 22:26N 53°55' E 009°10'0 0.0
2018-Apr-13 21:53N 53°55' E 009°10'0 0.0
2018-Apr-13 21:29N 53°55' E 009°10'0 0.0
2018-Apr-13 20:59N 53°55' E 009°10'0 0.0
2018-Apr-13 20:29N 53°55' E 009°10'0 0.0
2018-Apr-13 19:50N 53°55' E 009°10'0 0.0
2018-Apr-13 19:29N 53°55' E 009°10'0 0.0
2018-Apr-13 18:59N 53°55' E 009°10'0 0.0
2018-Apr-13 18:29N 53°55' E 009°10'0 0.0
2018-Apr-13 17:59N 53°55' E 009°10'0 0.0
2018-Apr-13 17:26N 53°55' E 009°10'0 0.0
2018-Apr-13 16:59N 53°55' E 009°10'0 0.0
2018-Apr-13 16:29N 53°55' E 009°10'0 0.0
2018-Apr-13 15:59N 53°55' E 009°10'0 0.0
2018-Apr-13 15:29N 53°55' E 009°10'0 0.0
2018-Apr-13 14:56N 53°55' E 009°10'0 0.0
2018-Apr-13 14:29N 53°55' E 009°10'0 0.0
2018-Apr-13 13:59N 53°55' E 009°10'0 0.0
2018-Apr-13 13:26N 53°55' E 009°10'0 0.0
2018-Apr-13 12:59N 53°55' E 009°10'0 0.0
2018-Apr-13 12:23N 53°55' E 009°10'0 0.0
2018-Apr-13 11:56N 53°55' E 009°10'0 0.0
2018-Apr-13 11:29N 53°55' E 009°10'0 0.0
2018-Apr-13 10:59N 53°55' E 009°10'0 0.0
2018-Apr-13 10:29N 53°55' E 009°10'0 0.0
2018-Apr-13 09:59N 53°55' E 009°10'0 0.0
2018-Apr-13 09:14N 53°55' E 009°10'0 0.0
2018-Apr-13 08:53N 53°55' E 009°10'0 0.0
2018-Apr-13 08:17N 53°55' E 009°10'0 0.0
2018-Apr-13 07:59N 53°55' E 009°10'0 0.0
2018-Apr-13 07:30N 53°55' E 009°10'1 2.9
2018-Apr-13 07:00N 53°54' E 009°09'0 0.0
2018-Apr-13 06:31N 53°54' E 009°09'1 2.4
2018-Apr-13 06:00N 53°53' E 009°07'1 1.2
2018-Apr-13 05:30N 53°53' E 009°06'0 0.9
2018-Apr-13 05:01N 53°53' E 009°05'2 3.9
2018-Apr-13 04:30N 53°52' E 009°02'4 8.1
2018-Apr-13 04:00N 53°51' E 008°56'4 7.9
2018-Apr-13 03:30N 53°50' E 008°49'4 7.2
2018-Apr-13 03:00N 53°52' E 008°44'4 7.2
2018-Apr-13 02:30N 53°55' E 008°40'4 7.4
2018-Apr-13 02:00N 53°58' E 008°36'4 8.8
2018-Apr-13 01:30N 53°58' E 008°29'4 8.8
2018-Apr-13 01:00N 53°59' E 008°21'5 9.7
2018-Apr-13 00:30N 53°60' E 008°13'9910.5
2018-Apr-12 15:06N 53°35' E 005°31'210.7
2018-Apr-12 14:56N 53°35' E 005°29'510.7
2018-Apr-12 14:30N 53°33' E 005°21'510.5
2018-Apr-12 14:00N 53°31' E 005°13'5 9.8
2018-Apr-12 13:30N 53°30' E 005°05'5 9.3
2018-Apr-12 13:00N 53°28' E 004°58'4 9.0
2018-Apr-12 12:31N 53°26' E 004°51'5 8.7
2018-Apr-12 11:56N 53°24' E 004°43'20 9.1
2018-Apr-12 09:46N 53°07' E 004°28'3 9.6
2018-Apr-12 09:27N 53°04' E 004°26'4 9.6
2018-Apr-12 09:00N 53°00' E 004°22'22 9.5
2018-Apr-12 06:41N 52°41' E 004°04'2 9.1
2018-Apr-12 06:30N 52°40' E 004°03'5 9.6
2018-Apr-12 05:57N 52°35' E 003°58'510.1
2018-Apr-12 05:30N 52°32' E 003°54'510.7
2018-Apr-12 05:00N 52°26' E 003°53'510.9
2018-Apr-12 04:30N 52°21' E 003°52'511.0
2018-Apr-12 04:00N 52°15' E 003°53'611.3
2018-Apr-12 03:30N 52°10' E 003°54'611.3
2018-Apr-12 03:00N 52°04' E 003°55'4 7.4
2018-Apr-12 02:31N 52°01' E 003°58'612.1
2018-Apr-12 02:01N 51°59' E 004°07'612.6
2018-Apr-12 01:30N 51°55' E 004°15'2 4.2
2018-Apr-12 01:00N 51°53' E 004°17'0 0.0
2018-Apr-12 00:28N 51°53' E 004°17'0 0.0
2018-Apr-11 23:58N 51°53' E 004°17'0 0.0
2018-Apr-11 23:28N 51°53' E 004°17'0 0.0
2018-Apr-11 22:55N 51°53' E 004°17'0 0.0
2018-Apr-11 22:28N 51°53' E 004°17'0 0.0
2018-Apr-11 21:58N 51°53' E 004°17'0 0.0
2018-Apr-11 21:28N 51°53' E 004°17'0 0.0
2018-Apr-11 20:55N 51°53' E 004°17'0 0.0
2018-Apr-11 20:28N 51°53' E 004°17'0 0.0
2018-Apr-11 19:58N 51°53' E 004°17'0 0.0
2018-Apr-11 19:19N 51°53' E 004°17'0 0.0
2018-Apr-11 18:58N 51°53' E 004°17'0 0.0
2018-Apr-11 18:28N 51°53' E 004°17'0 0.0
2018-Apr-11 17:58N 51°53' E 004°17'0 0.0
2018-Apr-11 17:28N 51°53' E 004°17'0 0.0
2018-Apr-11 16:58N 51°53' E 004°17'0 0.0
2018-Apr-11 16:25N 51°53' E 004°17'0 0.0
2018-Apr-11 15:58N 51°53' E 004°17'0 0.0
2018-Apr-11 15:28N 51°53' E 004°17'0 0.0
2018-Apr-11 14:52N 51°53' E 004°17'0 0.0
2018-Apr-11 14:28N 51°53' E 004°17'0 0.0
2018-Apr-11 13:58N 51°53' E 004°17'0 0.0
2018-Apr-11 13:19N 51°53' E 004°17'0 0.0
2018-Apr-11 12:58N 51°53' E 004°17'0 0.0
2018-Apr-11 12:28N 51°53' E 004°17'0 0.0
2018-Apr-11 11:58N 51°53' E 004°17'0 0.0
2018-Apr-11 11:28N 51°53' E 004°17'0 0.0
2018-Apr-11 10:58N 51°53' E 004°17'0 0.0
2018-Apr-11 10:28N 51°53' E 004°17'0 0.0
2018-Apr-11 09:58N 51°53' E 004°17'0 0.0
2018-Apr-11 09:28N 51°53' E 004°17'0 0.0
2018-Apr-11 08:58N 51°53' E 004°17'0 0.0
2018-Apr-11 08:28N 51°53' E 004°17'0 0.0
2018-Apr-11 07:58N 51°53' E 004°17'0 0.0
2018-Apr-11 07:25N 51°53' E 004°17'0 0.0
2018-Apr-11 06:58N 51°53' E 004°17'0 0.0
2018-Apr-11 06:25N 51°53' E 004°17'0 0.0
2018-Apr-11 05:55N 51°53' E 004°17'0 0.0
2018-Apr-11 05:19N 51°53' E 004°17'0 0.0
2018-Apr-11 04:58N 51°53' E 004°17'0 0.0
2018-Apr-11 04:28N 51°53' E 004°17'0 0.0
2018-Apr-11 03:55N 51°53' E 004°17'0 0.0
2018-Apr-11 03:28N 51°53' E 004°17'0 0.0
2018-Apr-11 02:58N 51°53' E 004°17'0 0.0
2018-Apr-11 02:28N 51°53' E 004°17'0 0.0
2018-Apr-11 01:58N 51°53' E 004°17'0 0.0
2018-Apr-11 01:28N 51°53' E 004°17'0 0.0
2018-Apr-11 00:58N 51°53' E 004°17'0 0.0
2018-Apr-11 00:25N 51°53' E 004°17'0 0.0
2018-Apr-10 23:58N 51°53' E 004°17'0 0.0
2018-Apr-10 23:28N 51°53' E 004°17'0 0.0
2018-Apr-10 22:58N 51°53' E 004°17'0 0.0
2018-Apr-10 22:28N 51°53' E 004°17'0 0.0
2018-Apr-10 21:58N 51°53' E 004°17'0 0.0
2018-Apr-10 21:28N 51°53' E 004°17'0 0.0
2018-Apr-10 20:58N 51°53' E 004°17'0 0.0
2018-Apr-10 20:28N 51°53' E 004°17'0 0.0
2018-Apr-10 19:58N 51°53' E 004°17'0 0.0
2018-Apr-10 19:28N 51°53' E 004°17'0 0.0
2018-Apr-10 19:00N 51°53' E 004°17'  

Dump ship's entire track history